Time;durP1;ratioP1;P1;durP2;ratioP2;P2;SDS_P1;SDS_P2;PMS_P1;PMS_P2;Temp;Humidity;BMP_temperature;BMP_pressure;BME280_temperature;BME280_humidity;BME280_pressure;Samples;Min_cycle;Max_cycle;Signal;HPM_P1;HPM_P2
2023/12/16 00:01:01;;;;;;;2.10;2.00;;;;;;;8.17;76.96;95435.38;5050714;28;20195;-47
2023/12/16 00:03:28;;;;;;;1.90;1.80;;;;;;;8.30;77.12;95455.72;5050200;28;20226;-48
2023/12/16 00:05:55;;;;;;;1.80;1.70;;;;;;;8.29;76.98;95454.09;5050507;28;20191;-46
2023/12/16 00:08:22;;;;;;;1.70;1.60;;;;;;;8.29;76.66;95454.09;5051243;28;20199;-45
2023/12/16 00:10:48;;;;;;;1.77;1.67;;;;;;;8.09;76.87;95431.72;5035486;28;20504;-47
2023/12/16 00:13:17;;;;;;;1.57;1.57;;;;;;;8.26;76.81;95470.41;5031156;28;20196;-45
2023/12/16 00:15:47;;;;;;;2.00;1.90;;;;;;;8.25;76.81;95478.97;5030902;28;20191;-45
2023/12/16 00:18:14;;;;;;;1.77;1.67;;;;;;;8.18;76.83;95466.75;5042921;28;20222;-46
2023/12/16 00:20:41;;;;;;;1.80;1.70;;;;;;;8.24;76.93;95489.25;5050379;28;20195;-47
2023/12/16 00:23:08;;;;;;;1.83;1.73;;;;;;;8.19;76.88;95489.56;5050496;28;20231;-45
2023/12/16 00:25:35;;;;;;;1.70;1.60;;;;;;;8.14;76.96;95481.41;5050283;28;20237;-47
2023/12/16 00:28:02;;;;;;;1.67;1.57;;;;;;;8.22;76.65;95491.91;5041009;28;20245;-45
2023/12/16 00:30:30;;;;;;;2.00;1.90;;;;;;;8.20;76.94;95490.38;5030796;28;20195;-45
2023/12/16 00:32:58;;;;;;;2.00;1.87;;;;;;;8.18;76.78;95493.03;5030356;28;20547;-46
2023/12/16 00:35:26;;;;;;;1.93;1.80;;;;;;;8.17;76.72;95495.69;5030440;28;20562;-46
2023/12/16 00:37:52;;;;;;;1.60;1.60;;;;;;;8.15;76.78;95512.81;5030134;28;20270;-47
2023/12/16 00:40:19;;;;;;;2.03;1.87;;;;;;;8.10;76.70;95497.81;5030464;28;20196;-46
2023/12/16 00:42:46;;;;;;;1.53;1.43;;;;;;;8.13;76.74;95501.91;5030221;28;20775;-46
2023/12/16 00:45:13;;;;;;;1.80;1.70;;;;;;;8.11;76.65;95508.81;5030167;28;20269;-45
2023/12/16 00:47:41;;;;;;;1.60;1.50;;;;;;;8.09;76.61;95518.31;5029832;28;20192;-46
2023/12/16 00:50:09;;;;;;;1.80;1.70;;;;;;;8.08;76.70;95516.69;5030054;28;20192;-46
2023/12/16 00:52:36;;;;;;;1.97;1.80;;;;;;;8.07;76.64;95523.50;5048798;28;20194;-46
2023/12/16 00:55:03;;;;;;;1.87;1.77;;;;;;;8.05;76.62;95517.69;5049136;28;20187;-47
2023/12/16 00:57:31;;;;;;;1.83;1.73;;;;;;;8.03;76.68;95506.78;5044585;28;20226;-46
2023/12/16 00:59:58;;;;;;;1.70;1.60;;;;;;;8.00;76.54;95523.09;5030155;28;20196;-46
2023/12/16 01:02:24;;;;;;;1.60;1.50;;;;;;;8.00;76.52;95527.38;5029833;28;20277;-46
2023/12/16 01:04:53;;;;;;;1.57;1.57;;;;;;;7.95;76.76;95522.59;5029556;28;20195;-46
2023/12/16 01:07:21;;;;;;;1.87;1.77;;;;;;;7.96;76.67;95531.06;5029429;28;20203;-46
2023/12/16 01:09:49;;;;;;;1.40;1.40;;;;;;;7.96;76.76;95523.41;5028656;28;20627;-46
2023/12/16 01:12:17;;;;;;;1.40;1.40;;;;;;;7.94;76.69;95528.59;5030214;28;20199;-46
2023/12/16 01:14:44;;;;;;;1.43;1.43;;;;;;;7.92;76.76;95525.34;5031301;28;20184;-45
2023/12/16 01:17:09;;;;;;;1.70;1.60;;;;;;;7.91;76.68;95531.34;5030032;28;20195;-46
2023/12/16 01:19:36;;;;;;;2.10;1.50;;;;;;;7.80;76.59;95509.13;5040597;28;20218;-46
2023/12/16 01:22:05;;;;;;;1.60;1.50;;;;;;;7.62;76.64;95489.16;5048304;28;20632;-46
2023/12/16 01:24:36;;;;;;;1.60;1.50;;;;;;;7.27;76.57;95426.91;5049159;28;20234;-46
2023/12/16 01:27:04;;;;;;;1.47;1.37;;;;;;;7.89;76.68;95533.16;5049502;28;20219;-47
2023/12/16 01:29:32;;;;;;;1.40;1.40;;;;;;;7.87;76.65;95537.56;5049108;28;20235;-46
2023/12/16 01:31:58;;;;;;;1.50;1.40;;;;;;;7.86;76.75;95524.91;5048460;28;20565;-45
2023/12/16 01:34:25;;;;;;;1.50;1.40;;;;;;;7.85;76.66;95530.94;5048885;28;20187;-47
2023/12/16 01:36:52;;;;;;;1.30;1.30;;;;;;;7.83;76.69;95541.22;5049694;28;20195;-47
2023/12/16 01:39:20;;;;;;;1.47;1.47;;;;;;;7.83;76.67;95542.97;5049888;28;20194;-47
2023/12/16 01:41:48;;;;;;;1.30;1.30;;;;;;;7.80;76.74;95541.41;5050341;28;20241;-45
2023/12/16 01:44:15;;;;;;;1.70;1.60;;;;;;;7.21;76.69;95451.91;5053508;28;20264;-46
2023/12/16 01:46:43;;;;;;;1.63;1.50;;;;;;;7.78;76.64;95551.72;5055151;28;20559;-48
2023/12/16 01:49:10;;;;;;;1.40;1.40;;;;;;;7.77;76.74;95541.59;5045427;28;20198;-46
2023/12/16 01:51:38;;;;;;;1.63;1.53;;;;;;;7.75;76.90;95546.00;5035393;28;20195;-48
2023/12/16 01:54:06;;;;;;;1.60;1.50;;;;;;;7.74;76.78;95550.28;5032191;28;20187;-47
2023/12/16 01:56:35;;;;;;;1.70;1.53;;;;;;;7.71;76.89;95549.66;5029764;28;20223;-44
2023/12/16 01:59:02;;;;;;;1.93;1.40;;;;;;;7.63;76.96;95536.59;5010441;28;20270;-47
2023/12/16 02:01:29;;;;;;;2.73;1.50;;;;;;;7.72;76.91;95557.19;5009765;28;20616;-47
2023/12/16 02:03:58;;;;;;;1.40;1.40;;;;;;;7.73;76.97;95560.56;5036317;28;20218;-46
2023/12/16 02:06:26;;;;;;;1.70;1.60;;;;;;;7.73;76.94;95566.47;5049340;28;20753;-45
2023/12/16 02:08:54;;;;;;;1.60;1.50;;;;;;;7.69;76.86;95559.13;5047972;28;20190;-45
2023/12/16 02:11:20;;;;;;;1.43;1.43;;;;;;;7.71;76.92;95559.84;5049148;28;20577;-45
2023/12/16 02:13:51;;;;;;;1.40;1.40;;;;;;;7.68;76.97;95560.84;5049973;28;20202;-45
2023/12/16 02:16:17;;;;;;;1.40;1.40;;;;;;;7.69;76.95;95565.03;5049157;28;20218;-45
2023/12/16 02:18:44;;;;;;;1.63;1.53;;;;;;;7.69;77.03;95565.03;5049601;28;20195;-46
2023/12/16 02:21:11;;;;;;;1.70;1.60;;;;;;;7.66;76.98;95559.31;5038774;28;20661;-44
2023/12/16 02:23:41;;;;;;;1.30;1.30;;;;;;;7.69;76.91;95572.69;5033686;28;20239;-46
2023/12/16 02:26:08;;;;;;;1.40;1.40;;;;;;;7.69;76.94;95574.41;5031299;28;20254;-46
2023/12/16 02:28:35;;;;;;;1.30;1.30;;;;;;;7.69;77.09;95577.75;5032543;28;20223;-47
2023/12/16 02:31:05;;;;;;;1.47;1.47;;;;;;;7.69;76.90;95580.31;5042309;28;20191;-47
2023/12/16 02:33:33;;;;;;;1.43;1.40;;;;;;;7.70;77.05;95583.66;5052177;28;20195;-45
2023/12/16 02:36:00;;;;;;;1.50;1.50;;;;;;;7.70;76.82;95588.75;5051642;28;20191;-46
2023/12/16 02:38:27;;;;;;;1.33;1.33;;;;;;;7.70;76.90;95591.31;5051947;28;20541;-47
2023/12/16 02:40:55;;;;;;;1.50;1.50;;;;;;;7.69;76.90;95587.94;5050705;28;20187;-48
2023/12/16 02:43:22;;;;;;;1.40;1.40;;;;;;;7.70;76.95;95598.94;5048564;28;20222;-46
2023/12/16 02:45:49;;;;;;;1.43;1.43;;;;;;;7.70;76.93;95593.84;5012561;28;20193;-47
2023/12/16 02:48:15;;;;;;;1.47;1.47;;;;;;;7.69;76.94;95595.59;5012387;28;20192;-46
2023/12/16 02:50:42;;;;;;;1.67;1.30;;;;;;;7.71;76.86;95603.13;5038510;28;20207;-46
2023/12/16 02:53:09;;;;;;;1.30;1.30;;;;;;;7.70;76.86;95599.75;5051697;28;20201;-43
2023/12/16 02:55:35;;;;;;;1.30;1.30;;;;;;;7.71;77.17;95605.66;5052328;28;20183;-45
2023/12/16 02:58:04;;;;;;;1.50;1.40;;;;;;;7.71;76.67;95609.03;5044785;28;20191;-46
2023/12/16 03:00:30;;;;;;;1.40;1.40;;;;;;;7.67;76.65;95612.66;5032396;28;20195;-46
2023/12/16 03:02:57;;;;;;;1.60;1.50;;;;;;;7.70;76.79;95615.03;5031490;28;20199;-44
2023/12/16 03:05:25;;;;;;;1.27;1.27;;;;;;;7.71;76.78;95620.94;5045849;28;20198;-46
2023/12/16 03:07:52;;;;;;;1.30;1.30;;;;;;;7.68;76.81;95619.38;5043463;28;20609;-46
2023/12/16 03:10:18;;;;;;;1.40;1.40;;;;;;;7.71;76.70;95621.75;5049566;28;20187;-46
2023/12/16 03:12:46;;;;;;;1.40;1.40;;;;;;;7.70;76.64;95617.56;5046769;28;20180;-47
2023/12/16 03:15:14;;;;;;;1.40;1.40;;;;;;;7.70;76.51;95622.66;5031458;28;20180;-46
2023/12/16 03:17:41;;;;;;;1.30;1.30;;;;;;;7.71;76.59;95628.56;5031700;28;20195;-45
2023/12/16 03:20:09;;;;;;;1.40;1.40;;;;;;;7.70;76.59;95625.22;5032735;28;20199;-48
2023/12/16 03:22:35;;;;;;;1.50;1.50;;;;;;;7.71;76.55;95621.75;5031784;28;20310;-45
2023/12/16 03:25:02;;;;;;;1.50;1.40;;;;;;;7.71;76.25;95628.56;5031289;28;20615;-47
2023/12/16 03:27:29;;;;;;;1.40;1.40;;;;;;;7.56;76.42;95617.66;5045584;28;20313;-44
2023/12/16 03:29:56;;;;;;;1.40;1.40;;;;;;;7.72;76.40;95642.94;5049364;28;20769;-46
2023/12/16 03:32:24;;;;;;;1.40;1.40;;;;;;;7.71;76.48;95644.66;5036987;28;20184;-46
2023/12/16 03:34:51;;;;;;;1.40;1.40;;;;;;;7.72;76.39;95651.38;5031062;28;20203;-45
2023/12/16 03:37:17;;;;;;;1.37;1.30;;;;;;;7.72;76.30;95642.94;5031365;28;20660;-45
2023/12/16 03:39:44;;;;;;;1.30;1.30;;;;;;;7.71;76.44;95648.94;5031434;28;20669;-47
2023/12/16 03:42:11;;;;;;;1.63;1.53;;;;;;;7.71;76.34;95649.75;5031308;28;20192;-47
2023/12/16 03:44:38;;;;;;;1.30;1.30;;;;;;;7.73;76.55;95667.50;5031194;28;20208;-47
2023/12/16 03:47:05;;;;;;;1.53;1.50;;;;;;;7.73;76.28;95657.31;4997286;28;20283;-45
2023/12/16 03:49:33;;;;;;;1.40;1.40;;;;;;;7.73;76.31;95662.41;5034960;28;20195;-45
2023/12/16 03:52:00;;;;;;;1.50;1.40;;;;;;;7.74;76.13;95669.13;5050652;28;20195;-45
2023/12/16 03:54:27;;;;;;;1.47;1.47;;;;;;;7.73;75.96;95670.03;5050532;28;20187;-45
2023/12/16 03:56:53;;;;;;;1.40;1.40;;;;;;;7.73;76.19;95670.03;5040863;28;20194;-47
2023/12/16 03:59:20;;;;;;;1.40;1.40;;;;;;;7.70;76.09;95672.78;5030905;28;20199;-46
2023/12/16 04:01:47;;;;;;;1.40;1.40;;;;;;;7.74;76.25;95684.41;5044284;28;20195;-47
2023/12/16 04:04:14;;;;;;;1.50;1.50;;;;;;;7.74;76.21;95682.66;5050699;28;20241;-44
2023/12/16 04:06:45;;;;;;;1.40;1.40;;;;;;;7.74;76.17;95679.31;5050566;28;20191;-46
2023/12/16 04:09:12;;;;;;;1.30;1.30;;;;;;;7.75;76.19;95693.66;5050413;28;20685;-48
2023/12/16 04:11:46;;;;;;;1.40;1.40;;;;;;;7.57;76.19;95665.09;5050602;28;20195;-47
2023/12/16 04:14:13;;;;;;;1.40;1.40;;;;;;;7.71;76.11;95700.69;5050778;28;20619;-46
2023/12/16 04:16:40;;;;;;;1.43;1.43;;;;;;;7.75;76.13;95708.94;5050165;28;20190;-45
2023/12/16 04:19:06;;;;;;;1.60;1.50;;;;;;;7.75;76.16;95697.03;5050310;28;20187;-45
2023/12/16 04:21:33;;;;;;;1.37;1.37;;;;;;;7.74;76.06;95694.59;5050794;28;20198;-48
2023/12/16 04:24:02;;;;;;;1.50;1.50;;;;;;;7.73;76.11;95701.41;5041862;28;20231;-45
2023/12/16 04:26:29;;;;;;;1.53;1.47;;;;;;;7.72;75.79;95699.75;5041466;28;20218;-48
2023/12/16 04:28:56;;;;;;;1.43;1.43;;;;;;;7.72;76.00;95706.59;5050549;28;20620;-45
2023/12/16 04:31:23;;;;;;;1.87;1.70;;;;;;;7.70;75.96;95703.31;5047362;28;20689;-44
2023/12/16 04:33:50;;;;;;;1.40;1.40;;;;;;;7.66;76.21;95701.88;5030081;28;20246;-44
2023/12/16 04:36:17;;;;;;;1.40;1.40;;;;;;;7.41;75.68;95656.75;5048842;28;20209;-47
2023/12/16 04:38:44;;;;;;;1.40;1.40;;;;;;;7.66;76.07;95705.25;5049534;28;20199;-46
2023/12/16 04:41:14;;;;;;;1.30;1.30;;;;;;;7.66;75.61;95702.69;5050395;28;20623;-47
2023/12/16 04:43:41;;;;;;;1.30;1.30;;;;;;;7.65;75.71;95705.34;5049795;28;20288;-45
2023/12/16 04:46:08;;;;;;;1.93;1.40;;;;;;;7.39;75.50;95673.88;5050539;28;20257;-47
2023/12/16 04:48:35;;;;;;;1.40;1.40;;;;;;;7.63;75.48;95720.69;5034583;28;20199;-45
2023/12/16 04:51:05;;;;;;;1.40;1.40;;;;;;;7.63;75.23;95727.53;5030272;28;20254;-46
2023/12/16 04:53:32;;;;;;;1.30;1.30;;;;;;;7.61;75.19;95739.53;5030128;28;20224;-46
2023/12/16 04:55:59;;;;;;;2.63;1.40;;;;;;;7.59;75.12;95736.25;5030315;28;20203;-44
2023/12/16 04:58:28;;;;;;;1.40;1.40;;;;;;;7.58;75.16;95719.34;5029636;28;20195;-47
2023/12/16 05:00:54;;;;;;;1.20;1.20;;;;;;;7.57;75.06;95722.81;5043251;28;20183;-46
2023/12/16 05:03:21;;;;;;;1.50;1.50;;;;;;;7.54;75.01;95719.53;5049897;28;20187;-48
2023/12/16 05:05:48;;;;;;;1.20;1.20;;;;;;;7.56;74.82;95732.19;5049502;28;20686;-47
2023/12/16 05:08:15;;;;;;;1.40;1.40;;;;;;;7.54;74.85;95737.34;5049470;28;20202;-46
2023/12/16 05:10:42;;;;;;;1.70;1.60;;;;;;;7.53;74.70;95743.34;5049382;28;20667;-45
2023/12/16 05:13:10;;;;;;;1.30;1.30;;;;;;;7.52;74.72;95746.00;5048719;28;20187;-46
2023/12/16 05:15:38;;;;;;;1.70;1.60;;;;;;;7.51;74.64;95751.97;5049398;28;20281;-47
2023/12/16 05:18:06;;;;;;;1.40;1.40;;;;;;;7.52;74.44;95759.53;5043565;28;20283;-47
2023/12/16 05:20:33;;;;;;;1.40;1.40;;;;;;;7.50;74.74;95755.44;5029556;28;20230;-46
2023/12/16 05:23:00;;;;;;;1.40;1.40;;;;;;;7.51;74.70;95760.47;5029697;28;20227;-47
2023/12/16 05:25:28;;;;;;;1.30;1.30;;;;;;;7.52;74.57;95764.63;5029139;28;20207;-48
2023/12/16 05:27:55;;;;;;;1.47;1.47;;;;;;;7.50;74.64;95758.00;5029563;28;20194;-47
2023/12/16 05:30:21;;;;;;;1.40;1.40;;;;;;;7.52;74.71;95763.81;5029486;28;20338;-47
2023/12/16 05:32:50;;;;;;;1.40;1.40;;;;;;;7.52;74.53;95768.91;5030228;28;20235;-45
2023/12/16 05:35:18;;;;;;;1.60;1.50;;;;;;;7.44;74.65;95766.00;5029557;28;20199;-47
2023/12/16 05:37:45;;;;;;;1.30;1.30;;;;;;;7.37;74.50;95764.72;5030171;28;20249;-47
2023/12/16 05:40:12;;;;;;;1.40;1.40;;;;;;;7.48;74.85;95787.81;5029791;28;20233;-44
2023/12/16 05:42:40;;;;;;;2.07;1.50;;;;;;;7.43;74.48;95772.84;5029392;28;20187;-46
2023/12/16 05:45:07;;;;;;;1.63;1.50;;;;;;;7.50;74.66;95783.44;5045972;28;20219;-45
2023/12/16 05:47:34;;;;;;;1.30;1.30;;;;;;;7.49;74.72;95777.53;5049542;28;20633;-47
2023/12/16 05:50:03;;;;;;;1.53;1.43;;;;;;;7.40;74.57;95750.09;5049576;28;20194;-45
2023/12/16 05:52:30;;;;;;;1.63;1.40;;;;;;;7.49;74.70;95776.72;5053397;28;20195;-53
2023/12/16 05:54:56;;;;;;;1.63;1.53;;;;;;;7.48;74.65;95781.00;5059269;28;20276;-56
2023/12/16 05:57:23;;;;;;;1.80;1.70;;;;;;;7.49;74.54;95789.44;5037807;28;20207;-46
2023/12/16 05:59:50;;;;;;;1.73;1.63;;;;;;;7.49;74.63;95781.81;5034815;28;20192;-45
2023/12/16 06:02:17;;;;;;;1.83;1.70;;;;;;;7.49;74.59;95776.72;5048663;28;20195;-45
2023/12/16 06:04:44;;;;;;;1.47;1.43;;;;;;;7.49;74.55;95781.81;5050790;28;20218;-46
2023/12/16 06:07:12;;;;;;;13.77;1.80;;;;;;;7.98;100.00;95791.56;5039654;28;20183;-45
2023/12/16 06:09:39;;;;;;;1.77;1.50;;;;;;;9.04;100.00;95778.81;5033092;28;20769;-46
2023/12/16 06:12:06;;;;;;;4.63;1.90;;;;;;;10.21;100.00;95794.66;5034522;28;20199;-46
2023/12/16 06:14:33;;;;;;;2.90;1.47;;;;;;;10.76;100.00;95790.75;5053196;28;20556;-46
2023/12/16 06:16:59;;;;;;;2.13;1.93;;;;;;;10.91;100.00;95803.34;5052932;28;20196;-46
2023/12/16 06:19:26;;;;;;;1.80;1.70;;;;;;;10.89;100.00;95805.22;5052859;28;20187;-45
2023/12/16 06:21:53;;;;;;;1.20;1.20;;;;;;;10.78;100.00;95806.78;5053125;28;20203;-47
2023/12/16 06:24:24;;;;;;;1.50;1.40;;;;;;;10.65;99.88;95812.91;5052262;28;20237;-45
2023/12/16 06:26:52;;;;;;;5.87;1.40;;;;;;;10.50;96.04;95830.19;5052891;28;20651;-47
2023/12/16 06:29:19;;;;;;;1.40;1.40;;;;;;;10.36;92.54;95822.66;5052294;28;20195;-45
2023/12/16 06:31:46;;;;;;;1.40;1.40;;;;;;;10.20;89.22;95831.38;5053476;28;20560;-46
2023/12/16 06:34:13;;;;;;;3.27;1.50;;;;;;;10.07;87.38;95842.56;5052273;28;20225;-46
2023/12/16 06:36:39;;;;;;;6.80;1.47;;;;;;;9.92;85.77;95844.41;5052718;28;20183;-47
2023/12/16 06:39:06;;;;;;;1.50;1.40;;;;;;;9.78;84.79;95846.19;5052821;28;20187;-46
2023/12/16 06:41:34;;;;;;;1.40;1.40;;;;;;;9.65;84.00;95852.22;5037909;28;20685;-46
2023/12/16 06:44:01;;;;;;;1.70;1.60;;;;;;;9.52;83.42;95847.13;5028616;28;20351;-45
2023/12/16 06:46:28;;;;;;;2.70;1.60;;;;;;;9.38;83.16;95850.59;5030710;28;20203;-45
2023/12/16 06:48:54;;;;;;;1.80;1.70;;;;;;;9.30;83.04;95855.41;5035758;28;20192;-52
2023/12/16 06:51:21;;;;;;;1.60;1.50;;;;;;;9.05;82.79;95841.69;5033667;28;20285;-46
2023/12/16 06:53:48;;;;;;;2.50;1.70;;;;;;;9.12;82.80;95875.28;5035920;28;20219;-47
2023/12/16 06:56:15;;;;;;;1.70;1.60;;;;;;;9.05;82.62;95881.69;5010646;28;20195;-45
2023/12/16 06:58:43;;;;;;;1.80;1.70;;;;;;;8.93;82.54;95877.38;5010089;28;20200;-46
2023/12/16 07:01:11;;;;;;;1.77;1.67;;;;;;;8.71;82.49;95858.34;5019734;28;20279;-46
2023/12/16 07:03:38;;;;;;;1.53;1.50;;;;;;;8.82;82.51;95892.56;5030012;28;20188;-46
2023/12/16 07:06:06;;;;;;;2.00;1.90;;;;;;;8.72;82.38;95897.41;5037142;28;20218;-45
2023/12/16 07:08:34;;;;;;;1.50;1.40;;;;;;;8.68;82.42;95901.06;5049491;28;20186;-46
2023/12/16 07:11:03;;;;;;;1.90;1.80;;;;;;;8.62;82.19;95915.03;5049272;28;20667;-45
2023/12/16 07:13:30;;;;;;;1.70;1.60;;;;;;;8.57;82.09;95916.22;5037872;28;20203;-45
2023/12/16 07:15:59;;;;;;;1.60;1.50;;;;;;;8.49;81.87;95917.50;5029620;28;20479;-46
2023/12/16 07:18:25;;;;;;;3.07;1.83;;;;;;;8.47;82.02;95927.00;5029325;28;20199;-47
2023/12/16 07:20:52;;;;;;;1.53;1.53;;;;;;;8.44;82.24;95928.91;5029181;28;20249;-47
2023/12/16 07:23:19;;;;;;;1.70;1.60;;;;;;;8.40;82.24;95930.84;5030218;28;20223;-46
2023/12/16 07:25:46;;;;;;;1.80;1.70;;;;;;;8.35;82.24;95924.34;5047463;28;20222;-52
2023/12/16 07:28:13;;;;;;;1.40;1.40;;;;;;;8.35;82.21;95927.72;5049601;28;20615;-46
2023/12/16 07:30:40;;;;;;;1.70;1.60;;;;;;;7.78;82.04;95847.09;5049803;28;20202;-45
2023/12/16 07:33:08;;;;;;;1.70;1.60;;;;;;;8.29;81.77;95933.19;5049749;28;20183;-46
2023/12/16 07:35:38;;;;;;;1.70;1.60;;;;;;;8.28;81.82;95934.09;5049198;28;20286;-46
2023/12/16 07:38:05;;;;;;;1.90;1.70;;;;;;;8.25;81.60;95936.84;5047739;28;20286;-46
2023/12/16 07:40:32;;;;;;;1.50;1.50;;;;;;;8.24;81.24;95937.72;5031951;28;20265;-45
2023/12/16 07:42:58;;;;;;;1.60;1.50;;;;;;;8.19;81.09;95935.47;5032886;28;20234;-46
2023/12/16 07:45:25;;;;;;;1.77;1.67;;;;;;;8.20;80.95;95951.56;5049174;28;20668;-47
2023/12/16 07:47:52;;;;;;;1.60;1.50;;;;;;;8.18;80.67;95941.47;5049748;28;20244;-45
2023/12/16 07:50:21;;;;;;;1.93;1.77;;;;;;;8.18;80.29;95951.66;5051067;28;20195;-46
2023/12/16 07:52:48;;;;;;;1.83;1.73;;;;;;;8.16;80.13;95950.97;5048428;28;20271;-48
2023/12/16 07:55:15;;;;;;;3.23;1.70;;;;;;;8.12;79.98;95943.56;5049408;28;20199;-46
2023/12/16 07:57:41;;;;;;;1.60;1.50;;;;;;;8.15;79.63;95954.38;5053854;28;20222;-46
2023/12/16 08:00:10;;;;;;;1.80;1.70;;;;;;;7.97;79.41;95925.75;5055834;28;20214;-47
2023/12/16 08:02:37;;;;;;;1.70;1.60;;;;;;;8.18;79.43;95961.88;5034605;28;20199;-46
2023/12/16 08:05:04;;;;;;;4.97;1.90;;;;;;;8.18;79.15;95968.69;5042556;28;20235;-46
2023/12/16 08:07:32;;;;;;;1.80;1.70;;;;;;;8.15;78.98;95968.88;5033827;28;20188;-46
2023/12/16 08:09:59;;;;;;;2.20;2.00;;;;;;;8.19;78.76;95976.22;5033464;28;20246;-45
2023/12/16 08:12:26;;;;;;;1.60;1.50;;;;;;;8.16;78.61;95975.59;5030355;28;20584;-50
2023/12/16 08:14:52;;;;;;;1.77;1.67;;;;;;;8.19;78.51;95981.34;5018642;28;20278;-44
2023/12/16 08:17:19;;;;;;;1.70;1.60;;;;;;;8.16;78.19;95971.34;5031200;28;20187;-46
2023/12/16 08:19:47;;;;;;;2.00;1.90;;;;;;;8.15;78.08;95972.22;5030360;28;20199;-45
2023/12/16 08:22:14;;;;;;;1.93;1.70;;;;;;;8.19;78.04;95983.88;5029410;28;20184;-45
2023/12/16 08:24:42;;;;;;;1.70;1.60;;;;;;;8.22;77.79;95988.00;5030812;28;20188;-45
2023/12/16 08:27:09;;;;;;;1.70;1.60;;;;;;;8.23;77.67;95987.88;5030592;28;20238;-46
2023/12/16 08:29:39;;;;;;;2.43;1.70;;;;;;;8.25;77.71;95993.72;5030241;28;20196;-47
2023/12/16 08:32:06;;;;;;;1.80;1.70;;;;;;;8.27;77.46;95998.72;5030312;28;20901;-45
2023/12/16 08:34:33;;;;;;;2.07;1.97;;;;;;;8.29;77.28;95991.81;5030113;28;20206;-46
2023/12/16 08:37:01;;;;;;;2.10;1.90;;;;;;;8.27;77.14;95988.53;5030439;28;20203;-44
2023/12/16 08:39:28;;;;;;;1.80;1.70;;;;;;;8.27;76.97;95993.63;5030386;28;20187;-44
2023/12/16 08:41:56;;;;;;;1.97;1.87;;;;;;;8.35;76.86;95994.00;5030096;28;20573;-46
2023/12/16 08:44:23;;;;;;;1.77;1.67;;;;;;;8.37;76.96;95988.81;5030310;28;20202;-47
2023/12/16 08:46:50;;;;;;;1.90;1.80;;;;;;;8.35;76.59;95986.34;5030469;28;20252;-46
2023/12/16 08:49:17;;;;;;;2.30;2.10;;;;;;;8.40;76.44;95988.63;5029872;28;20716;-44
2023/12/16 08:51:43;;;;;;;1.97;1.80;;;;;;;8.42;76.30;95997.00;5030021;28;20192;-43
2023/12/16 08:54:10;;;;;;;2.00;1.80;;;;;;;8.43;76.14;95999.47;5029651;28;20206;-45
2023/12/16 08:56:37;;;;;;;2.00;1.90;;;;;;;8.44;75.91;95998.56;5029753;28;20184;-46
2023/12/16 08:59:05;;;;;;;1.77;1.67;;;;;;;8.46;76.02;95993.34;5029959;28;20688;-45
2023/12/16 09:01:33;;;;;;;1.80;1.70;;;;;;;8.48;75.70;95994.91;5030188;28;20191;-45
2023/12/16 09:04:00;;;;;;;1.90;1.70;;;;;;;8.49;75.55;95998.28;5030803;28;20203;-44
2023/12/16 09:06:27;;;;;;;2.00;1.90;;;;;;;8.50;75.56;95990.53;5029555;28;20255;-45
2023/12/16 09:08:54;;;;;;;1.90;1.80;;;;;;;8.53;75.49;95994.63;5030321;28;20188;-45
2023/12/16 09:11:21;;;;;;;2.03;1.80;;;;;;;8.52;75.34;95983.63;5030177;28;20188;-44
2023/12/16 09:13:47;;;;;;;1.63;1.53;;;;;;;8.60;75.25;95990.00;5030264;28;20254;-45
2023/12/16 09:16:15;;;;;;;1.87;1.77;;;;;;;8.64;74.99;95981.25;5029851;28;20188;-44
2023/12/16 09:18:42;;;;;;;1.90;1.80;;;;;;;8.69;74.81;95982.59;5029649;28;20184;-46
2023/12/16 09:21:09;;;;;;;1.70;1.60;;;;;;;8.74;74.68;95985.66;5029902;28;20198;-45
2023/12/16 09:23:36;;;;;;;2.50;1.90;;;;;;;8.78;74.34;95974.38;5029675;28;20240;-45
2023/12/16 09:26:04;;;;;;;2.10;1.90;;;;;;;8.82;74.33;95977.56;5029651;28;20281;-46
2023/12/16 09:28:31;;;;;;;1.80;1.70;;;;;;;8.92;74.10;95972.69;5029291;28;20211;-46
2023/12/16 09:30:58;;;;;;;2.67;1.70;;;;;;;9.03;74.00;95976.22;5029944;28;20188;-46
2023/12/16 09:33:27;;;;;;;1.77;1.67;;;;;;;9.01;73.61;95949.16;5029472;28;20295;-45
2023/12/16 09:35:53;;;;;;;1.97;1.87;;;;;;;9.17;73.50;95975.34;5029629;28;20211;-47
2023/12/16 09:38:20;;;;;;;1.80;1.70;;;;;;;9.26;73.45;95967.09;5029168;28;20262;-45
2023/12/16 09:40:47;;;;;;;1.80;1.70;;;;;;;9.35;73.26;95964.88;5029453;28;20184;-44
2023/12/16 09:43:16;;;;;;;1.83;1.73;;;;;;;9.38;73.03;95965.50;5029152;28;20206;-46
2023/12/16 09:45:46;;;;;;;1.87;1.77;;;;;;;9.51;72.84;95963.78;5028259;28;20743;-46
2023/12/16 09:48:15;;;;;;;3.37;1.70;;;;;;;9.59;72.63;95963.28;5029273;28;20226;-46
2023/12/16 09:50:44;;;;;;;1.87;1.77;;;;;;;9.68;72.53;95960.13;5029558;28;20219;-45
2023/12/16 09:53:12;;;;;;;1.60;1.50;;;;;;;9.75;72.27;95953.69;5029603;28;20207;-45
2023/12/16 09:55:39;;;;;;;1.70;1.60;;;;;;;9.94;71.95;95967.81;5029649;28;20202;-45
2023/12/16 09:58:07;;;;;;;1.67;1.57;;;;;;;10.05;71.87;95978.09;5029388;28;20641;-46
2023/12/16 10:00:37;;;;;;;1.80;1.70;;;;;;;10.14;71.66;95977.50;5029417;28;20205;-45
2023/12/16 10:03:04;;;;;;;1.83;1.73;;;;;;;10.15;71.42;95958.69;5028926;28;20628;-48
2023/12/16 10:05:33;;;;;;;1.80;1.70;;;;;;;10.32;71.24;95974.66;5029297;28;20224;-45
2023/12/16 10:08:04;;;;;;;1.90;1.80;;;;;;;10.37;70.92;95962.38;5029223;28;20191;-46
2023/12/16 10:10:31;;;;;;;1.90;1.80;;;;;;;10.44;70.92;95971.25;5029565;28;20635;-47
2023/12/16 10:13:03;;;;;;;2.00;1.80;;;;;;;10.47;70.74;95971.88;5029419;28;20632;-43
2023/12/16 10:15:31;;;;;;;2.60;1.83;;;;;;;10.50;70.58;95963.19;5028998;28;20237;-46
2023/12/16 10:17:58;;;;;;;2.40;2.20;;;;;;;10.50;70.23;95961.44;5029240;28;20184;-46
2023/12/16 10:20:26;;;;;;;1.90;1.80;;;;;;;10.57;70.46;95966.13;5028910;28;20192;-45
2023/12/16 10:22:53;;;;;;;2.20;2.10;;;;;;;10.59;70.26;95967.66;5029009;28;20228;-44
2023/12/16 10:25:22;;;;;;;1.87;1.77;;;;;;;10.59;69.98;95959.16;5028804;28;20191;-45
2023/12/16 10:27:49;;;;;;;2.00;1.90;;;;;;;10.62;69.98;95974.28;5028975;28;20923;-46
2023/12/16 10:30:16;;;;;;;2.30;2.10;;;;;;;10.63;69.52;95965.69;5029180;28;20219;-46
2023/12/16 10:32:43;;;;;;;1.90;1.80;;;;;;;10.65;69.46;95963.84;5029511;28;20330;-44
2023/12/16 10:35:09;;;;;;;1.90;1.80;;;;;;;10.68;69.27;95972.13;5029324;28;20558;-46
2023/12/16 10:37:48;;;;;;;2.23;2.03;;;;;;;10.70;69.03;95960.03;5029018;28;20276;-46
2023/12/16 10:40:16;;;;;;;2.07;1.90;;;;;;;10.74;69.09;95964.00;5029063;28;20222;-45
2023/12/16 10:42:44;;;;;;;2.30;2.10;;;;;;;10.81;68.93;95972.09;5032898;28;20192;-47
2023/12/16 10:45:12;;;;;;;1.90;1.80;;;;;;;10.85;68.88;95965.84;5032632;28;20889;-47
2023/12/16 10:47:41;;;;;;;2.13;1.97;;;;;;;10.90;68.78;95962.94;5033067;28;20296;-45
2023/12/16 10:50:09;;;;;;;2.33;2.13;;;;;;;10.97;68.51;95969.28;5032867;28;20301;-44
2023/12/16 10:52:40;;;;;;;1.93;1.83;;;;;;;11.04;68.39;95967.91;5033112;28;20233;-45
2023/12/16 10:55:10;;;;;;;3.57;2.23;;;;;;;11.13;68.33;95969.81;5032128;28;20219;-45
2023/12/16 10:57:48;;;;;;;2.10;2.00;;;;;;;11.22;67.96;95976.00;5032803;28;20214;-45
2023/12/16 11:00:22;;;;;;;2.20;2.07;;;;;;;11.32;67.89;95974.44;5038708;28;20187;-45
2023/12/16 11:03:02;;;;;;;2.10;1.90;;;;;;;11.39;67.68;95970.47;5042541;28;20180;-44
2023/12/16 11:05:31;;;;;;;2.20;2.00;;;;;;;11.50;67.40;95979.97;5032022;28;20203;-45
2023/12/16 11:08:01;;;;;;;1.90;1.80;;;;;;;11.53;67.33;95974.63;5032236;28;20188;-44
2023/12/16 11:10:29;;;;;;;2.90;2.27;;;;;;;11.59;67.25;95975.91;5032244;28;20207;-45
2023/12/16 11:12:57;;;;;;;3.10;2.43;;;;;;;11.63;67.20;95979.91;5031876;28;20183;-46
2023/12/16 11:15:26;;;;;;;3.00;2.33;;;;;;;11.64;67.04;95973.84;5032083;28;20406;-45
2023/12/16 11:17:58;;;;;;;5.83;2.77;;;;;;;11.64;66.72;95969.53;5032060;28;20204;-46
2023/12/16 11:20:32;;;;;;;4.53;3.13;;;;;;;11.67;66.70;95968.50;5032321;28;20287;-46
2023/12/16 11:23:00;;;;;;;6.10;3.77;;;;;;;11.67;66.64;95969.31;5033271;28;20234;-45
2023/12/16 11:25:27;;;;;;;11.00;4.80;;;;;;;11.68;66.54;95965.81;5031416;28;20690;-45
2023/12/16 11:27:56;;;;;;;11.67;5.47;;;;;;;11.69;66.44;95964.88;5031876;28;20242;-44
2023/12/16 11:30:23;;;;;;;8.97;6.00;;;;;;;11.64;66.36;95954.16;5031537;28;20207;-45
2023/12/16 11:32:55;;;;;;;11.63;6.60;;;;;;;11.76;66.31;95972.94;5031728;28;20184;-48
2023/12/16 11:35:50;;;;;;;14.67;7.13;;;;;;;11.79;66.22;95965.03;5031449;28;20199;-46
2023/12/16 11:38:41;;;;;;;15.43;8.30;;;;;;;11.82;66.03;95957.09;5031772;28;20196;-44
2023/12/16 11:41:09;;;;;;;13.90;7.57;;;;;;;11.84;66.03;95962.97;5032293;28;20215;-47